createdAt,value
2023-10-01T00:00:44.959Z,22.30
2023-10-01T00:05:49.899Z,22.30
2023-10-01T00:10:53.210Z,22.30
2023-10-01T00:15:56.542Z,22.30
2023-10-01T00:21:00.981Z,22.30
2023-10-01T00:26:03.987Z,22.30
2023-10-01T00:31:07.436Z,22.30
2023-10-01T00:36:11.848Z,22.30
2023-10-01T00:41:14.795Z,22.20
2023-10-01T00:46:19.509Z,22.30
2023-10-01T00:51:24.210Z,22.30
2023-10-01T00:56:27.585Z,22.30
2023-10-01T01:01:30.634Z,22.20
2023-10-01T01:06:38.145Z,22.20
2023-10-01T01:11:41.980Z,22.20
2023-10-01T01:16:46.696Z,22.20
2023-10-01T01:21:51.792Z,22.20
2023-10-01T01:27:01.593Z,22.20
2023-10-01T01:32:14.879Z,22.20
2023-10-01T01:37:31.687Z,22.20
2023-10-01T01:42:36.136Z,22.20
2023-10-01T01:47:39.442Z,22.10
2023-10-01T01:52:43.833Z,22.10
2023-10-01T01:58:03.377Z,22.10
2023-10-01T02:03:13.752Z,22.10
2023-10-01T02:08:25.732Z,22.10
2023-10-01T02:13:31.051Z,22.10
2023-10-01T02:18:33.940Z,22.10
2023-10-01T02:23:37.602Z,22.10
2023-10-01T02:28:41.833Z,22.10
2023-10-01T02:33:56.872Z,22.00
2023-10-01T02:38:59.985Z,22.10
2023-10-01T02:44:04.506Z,22.00
2023-10-01T02:49:14.091Z,22.00
2023-10-01T02:54:20.151Z,22.00
2023-10-01T02:59:24.629Z,22.00
2023-10-01T03:04:28.829Z,22.00
2023-10-01T03:09:35.708Z,22.00
2023-10-01T03:14:44.553Z,22.00
2023-10-01T03:19:53.449Z,22.00
2023-10-01T03:24:59.581Z,21.90
2023-10-01T03:30:19.931Z,21.90
2023-10-01T03:35:23.035Z,22.00
2023-10-01T03:40:28.969Z,21.90
2023-10-01T03:45:40.737Z,21.90
2023-10-01T03:50:48.176Z,21.90
2023-10-01T03:55:56.148Z,21.90
2023-10-01T04:01:16.500Z,21.90
2023-10-01T04:06:22.516Z,21.90
2023-10-01T04:11:42.971Z,21.90
2023-10-01T04:16:49.149Z,21.80
2023-10-01T04:21:52.474Z,21.80
2023-10-01T04:26:55.707Z,21.80
2023-10-01T04:32:02.357Z,21.80
2023-10-01T04:37:05.333Z,21.80
2023-10-01T04:42:10.679Z,21.80
2023-10-01T04:47:32.215Z,21.80
2023-10-01T04:52:35.244Z,21.80
2023-10-01T04:57:40.056Z,21.80
2023-10-01T05:02:47.337Z,21.80
2023-10-01T05:07:51.808Z,21.70
2023-10-01T05:12:59.610Z,21.70
2023-10-01T05:18:05.879Z,21.70
2023-10-01T05:23:08.810Z,21.70
2023-10-01T05:28:24.608Z,21.70
2023-10-01T05:33:29.583Z,21.70
2023-10-01T05:38:35.126Z,21.70
2023-10-01T05:43:39.174Z,21.70
2023-10-01T05:48:44.416Z,21.70
2023-10-01T05:53:49.625Z,21.70
2023-10-01T05:58:53.860Z,21.70
2023-10-01T06:04:00.376Z,21.70
2023-10-01T06:09:05.576Z,21.80
2023-10-01T06:14:10.335Z,21.80
2023-10-01T06:19:15.330Z,21.80
2023-10-01T06:24:18.320Z,21.80
2023-10-01T06:29:23.352Z,21.80
2023-10-01T06:34:30.743Z,21.80
2023-10-01T06:39:36.755Z,21.80
2023-10-01T06:44:40.930Z,21.70
2023-10-01T06:49:58.270Z,21.70
2023-10-01T06:55:02.558Z,21.70
2023-10-01T07:00:19.013Z,21.80
2023-10-01T07:05:23.576Z,21.80
2023-10-01T07:10:27.348Z,21.80
2023-10-01T07:15:33.518Z,21.80
2023-10-01T07:20:40.519Z,21.80
2023-10-01T07:25:45.044Z,21.70
2023-10-01T07:30:52.893Z,21.80
2023-10-01T07:36:03.606Z,21.80
2023-10-01T07:41:12.446Z,21.80
2023-10-01T07:46:15.989Z,21.80
2023-10-01T07:51:27.665Z,21.80
2023-10-01T07:56:30.872Z,21.80
2023-10-01T08:01:38.347Z,21.80
2023-10-01T08:06:44.718Z,21.80
2023-10-01T08:12:07.394Z,21.90
2023-10-01T08:17:10.721Z,21.80
2023-10-01T08:22:16.949Z,21.80
2023-10-01T08:27:32.915Z,21.90
2023-10-01T08:32:40.158Z,21.80
2023-10-01T08:37:50.628Z,21.90
2023-10-01T08:42:54.741Z,21.90
2023-10-01T08:48:01.130Z,21.90
2023-10-01T08:53:12.205Z,21.90
2023-10-01T08:58:17.121Z,21.90
2023-10-01T09:03:30.484Z,22.00
2023-10-01T09:08:44.687Z,22.00
2023-10-01T09:13:49.994Z,22.00
2023-10-01T09:19:26.319Z,22.00
2023-10-01T09:24:39.879Z,22.00
2023-10-01T09:29:45.898Z,22.00
2023-10-01T09:34:59.306Z,22.00
2023-10-01T09:40:06.932Z,22.10
2023-10-01T09:45:25.737Z,22.10
2023-10-01T09:50:29.765Z,22.10
2023-10-01T09:55:36.986Z,22.20
2023-10-01T10:00:41.882Z,22.20
2023-10-01T10:05:47.659Z,22.30
2023-10-01T10:10:56.583Z,22.30
2023-10-01T10:16:01.407Z,22.30
2023-10-01T10:21:05.634Z,22.30
2023-10-01T10:26:14.573Z,22.30
2023-10-01T10:31:32.900Z,22.30
2023-10-01T10:36:37.032Z,22.30
2023-10-01T10:42:29.400Z,22.30
2023-10-01T10:48:00.787Z,22.30
2023-10-01T10:53:15.955Z,22.30
2023-10-01T10:58:21.059Z,22.30
2023-10-01T11:03:42.096Z,22.30
2023-10-01T11:08:54.717Z,22.30
2023-10-01T11:14:04.647Z,22.30
2023-10-01T11:19:17.964Z,22.30
2023-10-01T11:24:22.761Z,22.30
2023-10-01T11:29:25.694Z,22.40
2023-10-01T11:34:44.631Z,22.40
2023-10-01T11:39:53.638Z,22.40
2023-10-01T11:44:56.749Z,22.40
2023-10-01T11:50:10.323Z,22.40
2023-10-01T11:55:21.323Z,22.40
2023-10-01T12:00:53.599Z,22.40
2023-10-01T12:05:58.475Z,22.40
2023-10-01T12:11:21.390Z,22.40
2023-10-01T12:16:30.979Z,22.50
2023-10-01T12:21:35.467Z,22.50
2023-10-01T12:26:39.921Z,22.50
2023-10-01T12:31:45.865Z,22.60
2023-10-01T12:36:52.393Z,22.50
2023-10-01T12:41:58.745Z,22.50
2023-10-01T12:47:03.650Z,22.50
2023-10-01T12:52:10.228Z,22.50
2023-10-01T12:57:14.568Z,22.60
2023-10-01T13:02:30.229Z,22.60
2023-10-01T13:07:37.344Z,22.70
2023-10-01T13:12:54.843Z,22.60
2023-10-01T13:18:02.747Z,22.60
2023-10-01T13:23:08.891Z,22.60
2023-10-01T13:28:19.139Z,22.60
2023-10-01T13:33:24.387Z,22.60
2023-10-01T13:38:56.888Z,22.60
2023-10-01T13:44:17.459Z,22.60
2023-10-01T13:49:37.838Z,22.70
2023-10-01T13:54:59.550Z,22.70
2023-10-01T14:00:19.881Z,22.70
2023-10-01T14:05:40.256Z,22.60
2023-10-01T14:10:51.568Z,22.60
2023-10-01T14:15:54.517Z,22.70
2023-10-01T14:20:57.421Z,22.60
2023-10-01T14:26:11.281Z,22.70
2023-10-01T14:31:15.563Z,22.70
2023-10-01T14:36:21.518Z,22.70
2023-10-01T14:41:30.095Z,22.70
2023-10-01T14:46:35.148Z,22.70
2023-10-01T14:51:49.243Z,22.70
2023-10-01T14:56:57.453Z,22.70
2023-10-01T15:02:01.205Z,22.70
2023-10-01T15:07:06.897Z,22.60
2023-10-01T15:12:37.940Z,22.70
2023-10-01T15:17:47.536Z,22.60
2023-10-01T15:22:50.600Z,22.70
2023-10-01T15:27:55.185Z,22.70
2023-10-01T15:33:01.781Z,22.70
2023-10-01T15:38:05.437Z,22.60
2023-10-01T15:43:09.702Z,22.70
2023-10-01T15:48:16.688Z,22.70
2023-10-01T15:53:19.973Z,22.70
2023-10-01T15:58:26.328Z,22.60
2023-10-01T16:03:32.364Z,22.60
2023-10-01T16:08:36.980Z,22.60
2023-10-01T16:13:41.314Z,22.50
2023-10-01T16:18:48.367Z,22.50
2023-10-01T16:23:53.698Z,22.50
2023-10-01T16:29:00.109Z,22.50
2023-10-01T16:34:04.084Z,22.40
2023-10-01T16:39:14.185Z,22.40
2023-10-01T16:44:18.540Z,22.40
2023-10-01T16:49:21.939Z,22.40
2023-10-01T16:54:28.637Z,22.40
2023-10-01T16:59:33.367Z,22.40
2023-10-01T17:04:39.627Z,22.40
2023-10-01T17:09:42.506Z,22.40
2023-10-01T17:14:49.047Z,22.40
2023-10-01T17:19:52.283Z,22.30
2023-10-01T17:24:57.850Z,22.30
2023-10-01T17:30:19.183Z,22.30
2023-10-01T17:35:22.101Z,22.30
2023-10-01T17:40:25.806Z,22.30
2023-10-01T17:45:31.272Z,22.20
2023-10-01T17:50:34.796Z,22.20
2023-10-01T17:55:37.976Z,22.20
2023-10-01T18:00:43.373Z,22.20
2023-10-01T18:06:00.213Z,22.20
2023-10-01T18:11:11.929Z,22.20
2023-10-01T18:16:26.681Z,22.20
2023-10-01T18:21:30.170Z,22.20
2023-10-01T18:26:33.347Z,22.20
2023-10-01T18:31:38.280Z,22.20
2023-10-01T18:36:42.096Z,22.10
2023-10-01T18:41:45.799Z,22.20
2023-10-01T18:46:50.163Z,22.10
2023-10-01T18:51:54.211Z,22.10
2023-10-01T18:56:59.303Z,22.10
2023-10-01T19:02:03.664Z,22.00
2023-10-01T19:07:12.115Z,22.10
2023-10-01T19:12:15.449Z,22.00
2023-10-01T19:17:19.795Z,22.10
2023-10-01T19:22:34.676Z,22.10
2023-10-01T19:27:44.724Z,22.10
2023-10-01T19:32:49.366Z,22.10
2023-10-01T19:37:54.815Z,22.00
2023-10-01T19:43:01.067Z,22.00
2023-10-01T19:48:06.495Z,22.00
2023-10-01T19:53:17.096Z,22.00
2023-10-01T19:58:20.068Z,22.00
2023-10-01T20:03:25.251Z,22.00
2023-10-01T20:08:29.203Z,21.90
2023-10-01T20:13:32.633Z,22.00
2023-10-01T20:18:37.076Z,22.00
2023-10-01T20:23:41.721Z,21.90
2023-10-01T20:28:45.149Z,21.90
2023-10-01T20:33:53.742Z,21.90
2023-10-01T20:38:58.654Z,21.90
2023-10-01T20:44:03.440Z,21.90
2023-10-01T20:49:07.989Z,21.90
2023-10-01T20:54:14.831Z,21.90
2023-10-01T20:59:18.334Z,21.80
2023-10-01T21:04:26.112Z,21.90
2023-10-01T21:09:31.420Z,21.80
2023-10-01T21:14:37.911Z,21.80
2023-10-01T21:19:45.103Z,21.80
2023-10-01T21:24:48.297Z,21.80
2023-10-01T21:29:54.984Z,21.80
2023-10-01T21:34:59.989Z,21.80
2023-10-01T21:40:03.984Z,21.90
2023-10-01T21:45:40.917Z,21.80
2023-10-01T21:50:46.583Z,21.80
2023-10-01T21:55:49.620Z,21.80
2023-10-01T22:01:24.974Z,21.80
2023-10-01T22:06:30.906Z,21.80
2023-10-01T22:11:35.167Z,21.80
2023-10-01T22:16:44.945Z,21.80
2023-10-01T22:21:51.329Z,21.80
2023-10-01T22:26:57.024Z,21.80
2023-10-01T22:32:02.106Z,21.80
2023-10-01T22:37:11.184Z,21.70
2023-10-01T22:42:31.740Z,21.80
2023-10-01T22:47:38.362Z,21.70
2023-10-01T22:52:46.011Z,21.70
2023-10-01T22:57:51.050Z,21.70
2023-10-01T23:03:01.752Z,21.70
2023-10-01T23:08:08.045Z,21.70
2023-10-01T23:13:12.774Z,21.70
2023-10-01T23:18:19.622Z,21.70
2023-10-01T23:23:29.831Z,21.70
2023-10-01T23:28:34.811Z,21.70
2023-10-01T23:33:38.561Z,21.70
2023-10-01T23:38:57.023Z,21.70
2023-10-01T23:44:03.342Z,21.60
2023-10-01T23:49:12.502Z,21.60
2023-10-01T23:54:20.902Z,21.60
2023-10-01T23:59:31.371Z,21.60
